sensor_id;sensor_type;location;lat;lon;timestamp;temperature;humidity
31307;DHT22;17935;51.120;13.132;2024-02-04T00:01:26;8.40;99.90
31307;DHT22;17935;51.120;13.132;2024-02-04T00:03:51;8.30;99.90
31307;DHT22;17935;51.120;13.132;2024-02-04T00:06:17;8.30;99.90
31307;DHT22;17935;51.120;13.132;2024-02-04T00:08:42;8.30;99.90
31307;DHT22;17935;51.120;13.132;2024-02-04T00:11:07;8.30;99.90
31307;DHT22;17935;51.120;13.132;2024-02-04T00:13:37;8.30;99.90
31307;DHT22;17935;51.120;13.132;2024-02-04T00:16:03;8.40;99.90
31307;DHT22;17935;51.120;13.132;2024-02-04T00:18:28;8.40;99.90
31307;DHT22;17935;51.120;13.132;2024-02-04T00:20:54;8.40;99.90
31307;DHT22;17935;51.120;13.132;2024-02-04T00:23:19;8.40;99.90
31307;DHT22;17935;51.120;13.132;2024-02-04T00:25:45;8.40;99.90
31307;DHT22;17935;51.120;13.132;2024-02-04T00:28:10;8.40;99.90
31307;DHT22;17935;51.120;13.132;2024-02-04T00:30:37;8.40;99.90
31307;DHT22;17935;51.120;13.132;2024-02-04T00:33:03;8.40;99.90
31307;DHT22;17935;51.120;13.132;2024-02-04T00:35:29;8.40;99.90
31307;DHT22;17935;51.120;13.132;2024-02-04T00:37:54;8.40;99.90
31307;DHT22;17935;51.120;13.132;2024-02-04T00:40:20;8.30;99.90
31307;DHT22;17935;51.120;13.132;2024-02-04T00:42:45;8.30;99.90
31307;DHT22;17935;51.120;13.132;2024-02-04T00:45:11;8.30;99.90
31307;DHT22;17935;51.120;13.132;2024-02-04T00:47:36;8.30;99.90
31307;DHT22;17935;51.120;13.132;2024-02-04T00:50:02;8.20;99.90
31307;DHT22;17935;51.120;13.132;2024-02-04T00:52:27;8.30;99.90
31307;DHT22;17935;51.120;13.132;2024-02-04T00:54:52;8.20;99.90
31307;DHT22;17935;51.120;13.132;2024-02-04T00:57:18;8.20;99.90
31307;DHT22;17935;51.120;13.132;2024-02-04T00:59:43;8.10;99.90
31307;DHT22;17935;51.120;13.132;2024-02-04T01:02:09;8.10;99.90
31307;DHT22;17935;51.120;13.132;2024-02-04T01:04:34;8.10;99.90
31307;DHT22;17935;51.120;13.132;2024-02-04T01:07:00;8.00;99.90
31307;DHT22;17935;51.120;13.132;2024-02-04T01:09:25;8.00;99.90
31307;DHT22;17935;51.120;13.132;2024-02-04T01:11:50;8.00;99.90
31307;DHT22;17935;51.120;13.132;2024-02-04T01:14:18;7.80;99.90
31307;DHT22;17935;51.120;13.132;2024-02-04T01:16:43;7.70;99.90
31307;DHT22;17935;51.120;13.132;2024-02-04T01:19:09;7.50;99.90
31307;DHT22;17935;51.120;13.132;2024-02-04T01:21:34;7.50;99.90
31307;DHT22;17935;51.120;13.132;2024-02-04T01:24:00;7.40;99.90
31307;DHT22;17935;51.120;13.132;2024-02-04T01:26:25;7.40;99.90
31307;DHT22;17935;51.120;13.132;2024-02-04T01:28:51;7.30;99.90
31307;DHT22;17935;51.120;13.132;2024-02-04T01:31:16;7.20;99.90
31307;DHT22;17935;51.120;13.132;2024-02-04T01:33:42;7.10;99.90
31307;DHT22;17935;51.120;13.132;2024-02-04T01:36:07;7.00;99.90
31307;DHT22;17935;51.120;13.132;2024-02-04T01:38:33;7.10;99.90
31307;DHT22;17935;51.120;13.132;2024-02-04T01:40:58;7.20;99.90
31307;DHT22;17935;51.120;13.132;2024-02-04T01:43:24;7.30;99.90
31307;DHT22;17935;51.120;13.132;2024-02-04T01:45:50;7.40;99.90
31307;DHT22;17935;51.120;13.132;2024-02-04T01:48:15;7.60;99.90
31307;DHT22;17935;51.120;13.132;2024-02-04T01:50:42;7.60;99.90
31307;DHT22;17935;51.120;13.132;2024-02-04T01:53:08;7.60;99.90
31307;DHT22;17935;51.120;13.132;2024-02-04T01:55:33;7.70;99.90
31307;DHT22;17935;51.120;13.132;2024-02-04T01:57:59;7.80;99.90
31307;DHT22;17935;51.120;13.132;2024-02-04T02:00:24;7.80;99.90
31307;DHT22;17935;51.120;13.132;2024-02-04T02:02:50;7.80;99.90
31307;DHT22;17935;51.120;13.132;2024-02-04T02:05:16;7.90;99.90
31307;DHT22;17935;51.120;13.132;2024-02-04T02:07:41;7.90;99.90
31307;DHT22;17935;51.120;13.132;2024-02-04T02:10:10;7.90;99.90
31307;DHT22;17935;51.120;13.132;2024-02-04T02:12:39;7.90;99.90
31307;DHT22;17935;51.120;13.132;2024-02-04T02:15:10;8.00;99.90
31307;DHT22;17935;51.120;13.132;2024-02-04T02:17:57;8.00;99.90
31307;DHT22;17935;51.120;13.132;2024-02-04T02:20:27;8.00;99.90
31307;DHT22;17935;51.120;13.132;2024-02-04T02:23:03;8.10;99.90
31307;DHT22;17935;51.120;13.132;2024-02-04T02:25:32;8.10;99.90
31307;DHT22;17935;51.120;13.132;2024-02-04T02:27:58;8.10;99.90
31307;DHT22;17935;51.120;13.132;2024-02-04T02:30:24;8.10;99.90
31307;DHT22;17935;51.120;13.132;2024-02-04T02:32:50;8.10;99.90
31307;DHT22;17935;51.120;13.132;2024-02-04T02:35:16;8.20;99.90
31307;DHT22;17935;51.120;13.132;2024-02-04T02:40:28;8.20;99.90
31307;DHT22;17935;51.120;13.132;2024-02-04T02:42:55;8.20;99.90
31307;DHT22;17935;51.120;13.132;2024-02-04T02:45:21;8.20;99.90
31307;DHT22;17935;51.120;13.132;2024-02-04T02:47:48;8.20;99.90
31307;DHT22;17935;51.120;13.132;2024-02-04T02:50:14;8.20;99.90
31307;DHT22;17935;51.120;13.132;2024-02-04T02:52:39;8.20;99.90
31307;DHT22;17935;51.120;13.132;2024-02-04T02:55:05;8.20;99.90
31307;DHT22;17935;51.120;13.132;2024-02-04T02:57:31;8.20;99.90
31307;DHT22;17935;51.120;13.132;2024-02-04T02:59:56;8.10;99.90
31307;DHT22;17935;51.120;13.132;2024-02-04T03:02:21;8.20;99.90
31307;DHT22;17935;51.120;13.132;2024-02-04T03:04:47;8.20;99.90
31307;DHT22;17935;51.120;13.132;2024-02-04T03:07:12;8.10;99.90
31307;DHT22;17935;51.120;13.132;2024-02-04T03:09:38;8.20;99.90
31307;DHT22;17935;51.120;13.132;2024-02-04T03:12:03;8.10;99.90
31307;DHT22;17935;51.120;13.132;2024-02-04T03:14:29;8.10;99.90
31307;DHT22;17935;51.120;13.132;2024-02-04T03:16:54;8.00;99.90
31307;DHT22;17935;51.120;13.132;2024-02-04T03:19:20;8.00;99.90
31307;DHT22;17935;51.120;13.132;2024-02-04T03:21:46;8.00;99.90
31307;DHT22;17935;51.120;13.132;2024-02-04T03:24:12;7.90;99.90
31307;DHT22;17935;51.120;13.132;2024-02-04T03:26:37;7.80;99.90
31307;DHT22;17935;51.120;13.132;2024-02-04T03:29:02;7.70;99.90
31307;DHT22;17935;51.120;13.132;2024-02-04T03:31:30;7.80;99.90
31307;DHT22;17935;51.120;13.132;2024-02-04T03:33:56;7.80;99.90
31307;DHT22;17935;51.120;13.132;2024-02-04T03:36:22;7.80;99.90
31307;DHT22;17935;51.120;13.132;2024-02-04T03:38:49;7.80;99.90
31307;DHT22;17935;51.120;13.132;2024-02-04T03:41:14;7.70;99.90
31307;DHT22;17935;51.120;13.132;2024-02-04T03:43:40;7.60;99.90
31307;DHT22;17935;51.120;13.132;2024-02-04T03:46:05;7.60;99.90
31307;DHT22;17935;51.120;13.132;2024-02-04T03:48:31;7.70;99.90
31307;DHT22;17935;51.120;13.132;2024-02-04T03:50:56;7.80;99.90
31307;DHT22;17935;51.120;13.132;2024-02-04T03:53:22;7.80;99.90
31307;DHT22;17935;51.120;13.132;2024-02-04T03:55:48;7.90;99.90
31307;DHT22;17935;51.120;13.132;2024-02-04T03:58:14;7.90;99.90
31307;DHT22;17935;51.120;13.132;2024-02-04T04:00:40;7.90;99.90
31307;DHT22;17935;51.120;13.132;2024-02-04T04:03:05;7.80;99.90
31307;DHT22;17935;51.120;13.132;2024-02-04T04:05:30;7.80;99.90
31307;DHT22;17935;51.120;13.132;2024-02-04T04:07:56;7.90;99.90
31307;DHT22;17935;51.120;13.132;2024-02-04T04:10:21;7.90;99.90
31307;DHT22;17935;51.120;13.132;2024-02-04T04:12:47;7.90;99.90
31307;DHT22;17935;51.120;13.132;2024-02-04T04:15:12;8.00;99.90
31307;DHT22;17935;51.120;13.132;2024-02-04T04:17:38;8.00;99.90
31307;DHT22;17935;51.120;13.132;2024-02-04T04:20:04;7.90;99.90
31307;DHT22;17935;51.120;13.132;2024-02-04T04:22:30;7.80;99.90
31307;DHT22;17935;51.120;13.132;2024-02-04T04:24:55;7.80;99.90
31307;DHT22;17935;51.120;13.132;2024-02-04T04:27:21;7.80;99.90
31307;DHT22;17935;51.120;13.132;2024-02-04T04:29:46;7.80;99.90
31307;DHT22;17935;51.120;13.132;2024-02-04T04:32:12;7.90;99.90
31307;DHT22;17935;51.120;13.132;2024-02-04T04:34:37;7.90;99.90
31307;DHT22;17935;51.120;13.132;2024-02-04T04:37:02;8.00;99.90
31307;DHT22;17935;51.120;13.132;2024-02-04T04:39:28;8.00;99.90
31307;DHT22;17935;51.120;13.132;2024-02-04T04:41:53;8.00;99.90
31307;DHT22;17935;51.120;13.132;2024-02-04T04:44:19;8.00;99.90
31307;DHT22;17935;51.120;13.132;2024-02-04T04:46:44;8.00;99.90
31307;DHT22;17935;51.120;13.132;2024-02-04T04:49:10;8.00;99.90
31307;DHT22;17935;51.120;13.132;2024-02-04T04:51:35;8.10;99.90
31307;DHT22;17935;51.120;13.132;2024-02-04T04:54:01;8.10;99.90
31307;DHT22;17935;51.120;13.132;2024-02-04T04:56:26;8.10;99.90
31307;DHT22;17935;51.120;13.132;2024-02-04T04:58:51;8.20;99.90
31307;DHT22;17935;51.120;13.132;2024-02-04T05:01:17;8.10;99.90
31307;DHT22;17935;51.120;13.132;2024-02-04T05:03:44;8.10;99.90
31307;DHT22;17935;51.120;13.132;2024-02-04T05:06:09;8.10;99.90
31307;DHT22;17935;51.120;13.132;2024-02-04T05:08:35;8.10;99.90
31307;DHT22;17935;51.120;13.132;2024-02-04T05:11:00;8.10;99.90
31307;DHT22;17935;51.120;13.132;2024-02-04T05:13:25;8.10;99.90
31307;DHT22;17935;51.120;13.132;2024-02-04T05:15:51;8.10;99.90
31307;DHT22;17935;51.120;13.132;2024-02-04T05:18:16;8.10;99.90
31307;DHT22;17935;51.120;13.132;2024-02-04T05:20:42;8.10;99.90
31307;DHT22;17935;51.120;13.132;2024-02-04T05:23:08;8.10;99.90
31307;DHT22;17935;51.120;13.132;2024-02-04T05:25:34;8.00;99.90
31307;DHT22;17935;51.120;13.132;2024-02-04T05:27:59;8.00;99.90
31307;DHT22;17935;51.120;13.132;2024-02-04T05:30:25;8.00;99.90
31307;DHT22;17935;51.120;13.132;2024-02-04T05:32:50;8.00;99.90
31307;DHT22;17935;51.120;13.132;2024-02-04T05:35:16;8.10;99.90
31307;DHT22;17935;51.120;13.132;2024-02-04T05:37:41;8.10;99.90
31307;DHT22;17935;51.120;13.132;2024-02-04T05:40:07;8.10;99.90
31307;DHT22;17935;51.120;13.132;2024-02-04T05:42:33;8.10;99.90
31307;DHT22;17935;51.120;13.132;2024-02-04T05:44:58;8.10;99.90
31307;DHT22;17935;51.120;13.132;2024-02-04T05:47:24;8.10;99.90
31307;DHT22;17935;51.120;13.132;2024-02-04T05:49:49;8.10;99.90
31307;DHT22;17935;51.120;13.132;2024-02-04T05:52:15;8.10;99.90
31307;DHT22;17935;51.120;13.132;2024-02-04T05:54:40;8.10;99.90
31307;DHT22;17935;51.120;13.132;2024-02-04T05:57:06;8.10;99.90
31307;DHT22;17935;51.120;13.132;2024-02-04T05:59:32;8.10;99.90
31307;DHT22;17935;51.120;13.132;2024-02-04T06:02:00;8.10;99.90
31307;DHT22;17935;51.120;13.132;2024-02-04T06:04:26;8.20;99.90
31307;DHT22;17935;51.120;13.132;2024-02-04T06:06:51;8.10;99.90
31307;DHT22;17935;51.120;13.132;2024-02-04T06:09:17;8.10;99.90
31307;DHT22;17935;51.120;13.132;2024-02-04T06:11:45;8.10;99.90
31307;DHT22;17935;51.120;13.132;2024-02-04T06:14:13;8.10;99.90
31307;DHT22;17935;51.120;13.132;2024-02-04T06:16:39;8.10;99.90
31307;DHT22;17935;51.120;13.132;2024-02-04T06:19:04;8.10;99.90
31307;DHT22;17935;51.120;13.132;2024-02-04T06:21:30;8.10;99.90
31307;DHT22;17935;51.120;13.132;2024-02-04T06:23:56;7.90;99.90
31307;DHT22;17935;51.120;13.132;2024-02-04T06:26:21;7.90;99.90
31307;DHT22;17935;51.120;13.132;2024-02-04T06:28:47;7.90;99.90
31307;DHT22;17935;51.120;13.132;2024-02-04T06:31:14;7.90;99.90
31307;DHT22;17935;51.120;13.132;2024-02-04T06:33:39;7.90;99.90
31307;DHT22;17935;51.120;13.132;2024-02-04T06:36:08;8.00;99.90
31307;DHT22;17935;51.120;13.132;2024-02-04T06:38:34;8.00;99.90
31307;DHT22;17935;51.120;13.132;2024-02-04T06:40:59;8.00;99.90
31307;DHT22;17935;51.120;13.132;2024-02-04T06:43:25;8.10;99.90
31307;DHT22;17935;51.120;13.132;2024-02-04T06:45:50;8.10;99.90
31307;DHT22;17935;51.120;13.132;2024-02-04T06:48:18;8.10;99.90
31307;DHT22;17935;51.120;13.132;2024-02-04T06:50:44;8.10;99.90
31307;DHT22;17935;51.120;13.132;2024-02-04T06:53:14;8.10;99.90
31307;DHT22;17935;51.120;13.132;2024-02-04T06:55:40;8.10;99.90
31307;DHT22;17935;51.120;13.132;2024-02-04T06:58:05;8.20;99.90
31307;DHT22;17935;51.120;13.132;2024-02-04T07:00:31;8.20;99.90
31307;DHT22;17935;51.120;13.132;2024-02-04T07:02:56;8.20;99.90
31307;DHT22;17935;51.120;13.132;2024-02-04T07:05:22;8.20;99.90
31307;DHT22;17935;51.120;13.132;2024-02-04T07:07:48;8.30;99.90
31307;DHT22;17935;51.120;13.132;2024-02-04T07:10:14;8.30;99.90
31307;DHT22;17935;51.120;13.132;2024-02-04T07:12:39;8.30;99.90
31307;DHT22;17935;51.120;13.132;2024-02-04T07:15:05;8.30;99.90
31307;DHT22;17935;51.120;13.132;2024-02-04T07:17:30;8.30;99.90
31307;DHT22;17935;51.120;13.132;2024-02-04T07:19:56;8.40;99.90
31307;DHT22;17935;51.120;13.132;2024-02-04T07:22:21;8.40;99.90
31307;DHT22;17935;51.120;13.132;2024-02-04T07:24:47;8.40;99.90
31307;DHT22;17935;51.120;13.132;2024-02-04T07:27:12;8.50;99.90
31307;DHT22;17935;51.120;13.132;2024-02-04T07:29:38;8.50;99.90
31307;DHT22;17935;51.120;13.132;2024-02-04T07:32:03;8.50;99.90
31307;DHT22;17935;51.120;13.132;2024-02-04T07:34:29;8.60;99.90
31307;DHT22;17935;51.120;13.132;2024-02-04T07:36:55;8.60;99.90
31307;DHT22;17935;51.120;13.132;2024-02-04T07:39:20;8.60;99.90
31307;DHT22;17935;51.120;13.132;2024-02-04T07:41:45;8.60;99.90
31307;DHT22;17935;51.120;13.132;2024-02-04T07:44:11;8.60;99.90
31307;DHT22;17935;51.120;13.132;2024-02-04T07:46:36;8.70;99.90
31307;DHT22;17935;51.120;13.132;2024-02-04T07:49:02;8.70;99.90
31307;DHT22;17935;51.120;13.132;2024-02-04T07:51:27;8.80;99.90
31307;DHT22;17935;51.120;13.132;2024-02-04T07:53:53;8.90;99.90
31307;DHT22;17935;51.120;13.132;2024-02-04T07:56:21;9.00;99.90
31307;DHT22;17935;51.120;13.132;2024-02-04T07:58:47;9.10;99.90
31307;DHT22;17935;51.120;13.132;2024-02-04T08:01:15;9.10;99.90
31307;DHT22;17935;51.120;13.132;2024-02-04T08:03:43;9.40;99.90
31307;DHT22;17935;51.120;13.132;2024-02-04T08:06:09;9.60;99.90
31307;DHT22;17935;51.120;13.132;2024-02-04T08:08:34;9.60;99.90
31307;DHT22;17935;51.120;13.132;2024-02-04T08:11:00;9.60;99.90
31307;DHT22;17935;51.120;13.132;2024-02-04T08:13:28;9.60;99.90
31307;DHT22;17935;51.120;13.132;2024-02-04T08:15:53;9.50;99.90
31307;DHT22;17935;51.120;13.132;2024-02-04T08:18:19;9.50;99.90
31307;DHT22;17935;51.120;13.132;2024-02-04T08:20:44;9.50;99.90
31307;DHT22;17935;51.120;13.132;2024-02-04T08:23:10;9.60;99.90
31307;DHT22;17935;51.120;13.132;2024-02-04T08:25:35;9.60;99.90
31307;DHT22;17935;51.120;13.132;2024-02-04T08:28:03;9.60;99.90
31307;DHT22;17935;51.120;13.132;2024-02-04T08:30:29;9.60;99.90
31307;DHT22;17935;51.120;13.132;2024-02-04T08:32:55;9.50;99.90
31307;DHT22;17935;51.120;13.132;2024-02-04T08:35:20;9.40;99.90
31307;DHT22;17935;51.120;13.132;2024-02-04T08:37:46;9.40;99.90
31307;DHT22;17935;51.120;13.132;2024-02-04T08:40:11;9.30;99.90
31307;DHT22;17935;51.120;13.132;2024-02-04T08:42:37;9.20;99.90
31307;DHT22;17935;51.120;13.132;2024-02-04T08:45:02;9.20;99.90
31307;DHT22;17935;51.120;13.132;2024-02-04T08:47:28;9.10;99.90
31307;DHT22;17935;51.120;13.132;2024-02-04T08:49:54;9.10;99.90
31307;DHT22;17935;51.120;13.132;2024-02-04T08:52:36;9.00;99.90
31307;DHT22;17935;51.120;13.132;2024-02-04T08:58:11;9.00;99.90
31307;DHT22;17935;51.120;13.132;2024-02-04T09:00:56;9.00;99.90
31307;DHT22;17935;51.120;13.132;2024-02-04T09:06:42;9.20;99.90
31307;DHT22;17935;51.120;13.132;2024-02-04T09:09:12;9.50;99.90
31307;DHT22;17935;51.120;13.132;2024-02-04T09:11:40;9.60;99.90
31307;DHT22;17935;51.120;13.132;2024-02-04T09:14:08;9.70;99.90
31307;DHT22;17935;51.120;13.132;2024-02-04T09:16:36;9.80;99.90
31307;DHT22;17935;51.120;13.132;2024-02-04T09:22:21;9.90;99.90
31307;DHT22;17935;51.120;13.132;2024-02-04T09:24:52;10.00;99.90
31307;DHT22;17935;51.120;13.132;2024-02-04T09:27:31;10.20;99.90
31307;DHT22;17935;51.120;13.132;2024-02-04T09:30:03;10.20;99.90
31307;DHT22;17935;51.120;13.132;2024-02-04T09:32:31;10.30;99.90
31307;DHT22;17935;51.120;13.132;2024-02-04T09:35:07;10.40;99.90
31307;DHT22;17935;51.120;13.132;2024-02-04T09:37:41;10.40;99.90
31307;DHT22;17935;51.120;13.132;2024-02-04T09:40:16;10.30;99.90
31307;DHT22;17935;51.120;13.132;2024-02-04T09:42:44;10.30;99.90
31307;DHT22;17935;51.120;13.132;2024-02-04T09:45:53;10.20;99.90
31307;DHT22;17935;51.120;13.132;2024-02-04T09:48:21;10.10;99.90
31307;DHT22;17935;51.120;13.132;2024-02-04T09:51:01;10.00;99.90
31307;DHT22;17935;51.120;13.132;2024-02-04T09:53:43;10.00;99.90
31307;DHT22;17935;51.120;13.132;2024-02-04T09:56:24;10.00;99.90
31307;DHT22;17935;51.120;13.132;2024-02-04T09:59:09;9.80;99.90
31307;DHT22;17935;51.120;13.132;2024-02-04T10:01:43;9.80;99.90
31307;DHT22;17935;51.120;13.132;2024-02-04T10:04:14;9.80;99.90
31307;DHT22;17935;51.120;13.132;2024-02-04T10:06:45;9.70;99.90
31307;DHT22;17935;51.120;13.132;2024-02-04T10:09:13;9.70;99.90
31307;DHT22;17935;51.120;13.132;2024-02-04T10:11:41;9.60;99.90
31307;DHT22;17935;51.120;13.132;2024-02-04T10:14:27;9.60;99.90
31307;DHT22;17935;51.120;13.132;2024-02-04T10:16:55;9.50;99.90
31307;DHT22;17935;51.120;13.132;2024-02-04T10:19:24;9.50;99.90
31307;DHT22;17935;51.120;13.132;2024-02-04T10:24:51;9.50;99.90
31307;DHT22;17935;51.120;13.132;2024-02-04T10:27:20;9.60;99.90
31307;DHT22;17935;51.120;13.132;2024-02-04T10:29:54;9.60;99.90
31307;DHT22;17935;51.120;13.132;2024-02-04T10:32:21;9.50;99.90
31307;DHT22;17935;51.120;13.132;2024-02-04T10:37:55;9.60;99.90
31307;DHT22;17935;51.120;13.132;2024-02-04T10:40:40;9.60;99.90
31307;DHT22;17935;51.120;13.132;2024-02-04T10:43:31;9.70;99.90
31307;DHT22;17935;51.120;13.132;2024-02-04T10:46:17;9.70;99.90
31307;DHT22;17935;51.120;13.132;2024-02-04T10:48:55;9.70;99.90
31307;DHT22;17935;51.120;13.132;2024-02-04T10:51:23;9.90;99.90
31307;DHT22;17935;51.120;13.132;2024-02-04T10:53:57;10.10;99.90
31307;DHT22;17935;51.120;13.132;2024-02-04T10:56:32;10.20;99.90
31307;DHT22;17935;51.120;13.132;2024-02-04T10:59:00;10.10;99.90
31307;DHT22;17935;51.120;13.132;2024-02-04T11:01:31;9.90;99.90
31307;DHT22;17935;51.120;13.132;2024-02-04T11:04:03;9.90;99.90
31307;DHT22;17935;51.120;13.132;2024-02-04T11:06:32;9.80;99.90
31307;DHT22;17935;51.120;13.132;2024-02-04T11:08:58;9.90;99.90
31307;DHT22;17935;51.120;13.132;2024-02-04T11:11:46;9.90;99.90
31307;DHT22;17935;51.120;13.132;2024-02-04T11:14:19;9.90;99.90
31307;DHT22;17935;51.120;13.132;2024-02-04T11:19:33;10.00;99.90
31307;DHT22;17935;51.120;13.132;2024-02-04T11:24:44;10.00;99.90
31307;DHT22;17935;51.120;13.132;2024-02-04T11:30:02;9.80;99.90
31307;DHT22;17935;51.120;13.132;2024-02-04T11:32:37;9.80;99.90
31307;DHT22;17935;51.120;13.132;2024-02-04T11:35:03;9.70;99.90
31307;DHT22;17935;51.120;13.132;2024-02-04T11:40:43;9.70;99.90
31307;DHT22;17935;51.120;13.132;2024-02-04T11:43:22;9.80;99.90
31307;DHT22;17935;51.120;13.132;2024-02-04T11:45:54;10.00;99.90
31307;DHT22;17935;51.120;13.132;2024-02-04T11:48:28;10.20;99.90
31307;DHT22;17935;51.120;13.132;2024-02-04T11:50:57;10.20;99.90
31307;DHT22;17935;51.120;13.132;2024-02-04T11:53:42;10.20;99.90
31307;DHT22;17935;51.120;13.132;2024-02-04T11:56:13;10.10;99.90
31307;DHT22;17935;51.120;13.132;2024-02-04T11:58:39;10.00;99.90
31307;DHT22;17935;51.120;13.132;2024-02-04T12:04:08;10.00;99.90
31307;DHT22;17935;51.120;13.132;2024-02-04T12:06:33;10.00;99.90
31307;DHT22;17935;51.120;13.132;2024-02-04T12:08:59;9.90;99.90
31307;DHT22;17935;51.120;13.132;2024-02-04T12:11:25;10.00;99.90
31307;DHT22;17935;51.120;13.132;2024-02-04T12:13:59;10.00;99.90
31307;DHT22;17935;51.120;13.132;2024-02-04T12:16:29;10.30;99.90
31307;DHT22;17935;51.120;13.132;2024-02-04T12:19:01;10.50;99.90
31307;DHT22;17935;51.120;13.132;2024-02-04T12:21:31;10.60;99.90
31307;DHT22;17935;51.120;13.132;2024-02-04T12:23:57;10.50;99.90
31307;DHT22;17935;51.120;13.132;2024-02-04T12:26:25;10.60;99.90
31307;DHT22;17935;51.120;13.132;2024-02-04T12:28:59;10.50;99.90
31307;DHT22;17935;51.120;13.132;2024-02-04T12:31:28;10.50;99.90
31307;DHT22;17935;51.120;13.132;2024-02-04T12:34:01;10.40;99.90
31307;DHT22;17935;51.120;13.132;2024-02-04T12:36:34;10.30;99.90
31307;DHT22;17935;51.120;13.132;2024-02-04T12:39:03;10.30;99.90
31307;DHT22;17935;51.120;13.132;2024-02-04T12:41:32;10.40;99.90
31307;DHT22;17935;51.120;13.132;2024-02-04T12:44:04;10.40;99.90
31307;DHT22;17935;51.120;13.132;2024-02-04T12:46:30;10.60;99.90
31307;DHT22;17935;51.120;13.132;2024-02-04T12:48:56;10.70;99.90
31307;DHT22;17935;51.120;13.132;2024-02-04T12:51:30;10.80;99.90
31307;DHT22;17935;51.120;13.132;2024-02-04T12:54:11;10.80;99.90
31307;DHT22;17935;51.120;13.132;2024-02-04T12:56:47;10.80;99.90
31307;DHT22;17935;51.120;13.132;2024-02-04T12:59:25;10.90;99.90
31307;DHT22;17935;51.120;13.132;2024-02-04T13:01:56;10.90;99.90
31307;DHT22;17935;51.120;13.132;2024-02-04T13:04:22;10.90;99.90
31307;DHT22;17935;51.120;13.132;2024-02-04T13:06:51;11.00;99.90
31307;DHT22;17935;51.120;13.132;2024-02-04T13:09:24;10.90;99.90
31307;DHT22;17935;51.120;13.132;2024-02-04T13:12:02;10.80;99.90
31307;DHT22;17935;51.120;13.132;2024-02-04T13:14:34;10.50;99.90
31307;DHT22;17935;51.120;13.132;2024-02-04T13:17:02;10.20;99.90
31307;DHT22;17935;51.120;13.132;2024-02-04T13:19:37;9.90;99.90
31307;DHT22;17935;51.120;13.132;2024-02-04T13:22:06;9.80;99.90
31307;DHT22;17935;51.120;13.132;2024-02-04T13:24:35;10.00;99.90
31307;DHT22;17935;51.120;13.132;2024-02-04T13:27:01;10.00;99.90
31307;DHT22;17935;51.120;13.132;2024-02-04T13:29:31;10.00;99.90
31307;DHT22;17935;51.120;13.132;2024-02-04T13:31:57;10.00;99.90
31307;DHT22;17935;51.120;13.132;2024-02-04T13:34:43;10.10;99.90
31307;DHT22;17935;51.120;13.132;2024-02-04T13:37:11;10.10;99.90
31307;DHT22;17935;51.120;13.132;2024-02-04T13:39:37;10.00;99.90
31307;DHT22;17935;51.120;13.132;2024-02-04T13:42:06;9.90;99.90
31307;DHT22;17935;51.120;13.132;2024-02-04T13:44:32;9.80;99.90
31307;DHT22;17935;51.120;13.132;2024-02-04T13:47:00;9.80;99.90
31307;DHT22;17935;51.120;13.132;2024-02-04T13:49:31;9.70;99.90
31307;DHT22;17935;51.120;13.132;2024-02-04T13:52:00;9.70;99.90
31307;DHT22;17935;51.120;13.132;2024-02-04T13:54:30;9.70;99.90
31307;DHT22;17935;51.120;13.132;2024-02-04T13:56:59;9.70;99.90
31307;DHT22;17935;51.120;13.132;2024-02-04T13:59:30;9.60;99.90
31307;DHT22;17935;51.120;13.132;2024-02-04T14:02:19;9.40;99.90
31307;DHT22;17935;51.120;13.132;2024-02-04T14:05:04;9.30;99.90
31307;DHT22;17935;51.120;13.132;2024-02-04T14:07:32;9.20;99.90
31307;DHT22;17935;51.120;13.132;2024-02-04T14:09:58;9.10;99.90
31307;DHT22;17935;51.120;13.132;2024-02-04T14:12:40;9.00;99.90
31307;DHT22;17935;51.120;13.132;2024-02-04T14:15:28;9.00;99.90
31307;DHT22;17935;51.120;13.132;2024-02-04T14:18:23;8.90;99.90
31307;DHT22;17935;51.120;13.132;2024-02-04T14:20:52;8.80;99.90
31307;DHT22;17935;51.120;13.132;2024-02-04T14:23:17;8.80;99.90
31307;DHT22;17935;51.120;13.132;2024-02-04T14:25:45;8.80;99.90
31307;DHT22;17935;51.120;13.132;2024-02-04T14:28:16;8.80;99.90
31307;DHT22;17935;51.120;13.132;2024-02-04T14:31:02;8.80;99.90
31307;DHT22;17935;51.120;13.132;2024-02-04T14:33:42;8.70;99.90
31307;DHT22;17935;51.120;13.132;2024-02-04T14:36:17;8.70;99.90
31307;DHT22;17935;51.120;13.132;2024-02-04T14:38:42;8.70;99.90
31307;DHT22;17935;51.120;13.132;2024-02-04T14:41:11;8.70;99.90
31307;DHT22;17935;51.120;13.132;2024-02-04T14:43:52;8.70;99.90
31307;DHT22;17935;51.120;13.132;2024-02-04T14:46:21;8.70;99.90
31307;DHT22;17935;51.120;13.132;2024-02-04T14:49:22;8.70;99.90
31307;DHT22;17935;51.120;13.132;2024-02-04T14:52:01;8.70;99.90
31307;DHT22;17935;51.120;13.132;2024-02-04T14:54:31;8.70;99.90
31307;DHT22;17935;51.120;13.132;2024-02-04T14:56:59;8.70;99.90
31307;DHT22;17935;51.120;13.132;2024-02-04T14:59:24;8.60;99.90
31307;DHT22;17935;51.120;13.132;2024-02-04T15:02:05;8.60;99.90
31307;DHT22;17935;51.120;13.132;2024-02-04T15:04:32;8.50;99.90
31307;DHT22;17935;51.120;13.132;2024-02-04T15:06:58;8.50;99.90
31307;DHT22;17935;51.120;13.132;2024-02-04T15:09:32;8.50;99.90
31307;DHT22;17935;51.120;13.132;2024-02-04T15:11:59;8.40;99.90
31307;DHT22;17935;51.120;13.132;2024-02-04T15:14:25;8.40;99.90
31307;DHT22;17935;51.120;13.132;2024-02-04T15:16:51;8.40;99.90
31307;DHT22;17935;51.120;13.132;2024-02-04T15:19:22;8.30;99.90
31307;DHT22;17935;51.120;13.132;2024-02-04T15:22:03;8.30;99.90
31307;DHT22;17935;51.120;13.132;2024-02-04T15:24:30;8.20;99.90
31307;DHT22;17935;51.120;13.132;2024-02-04T15:26:59;8.20;99.90
31307;DHT22;17935;51.120;13.132;2024-02-04T15:29:48;8.20;99.90
31307;DHT22;17935;51.120;13.132;2024-02-04T15:32:14;8.10;99.90
31307;DHT22;17935;51.120;13.132;2024-02-04T15:34:43;8.10;99.90
31307;DHT22;17935;51.120;13.132;2024-02-04T15:37:12;8.10;99.90
31307;DHT22;17935;51.120;13.132;2024-02-04T15:42:13;8.00;99.90
31307;DHT22;17935;51.120;13.132;2024-02-04T15:44:42;8.00;99.90
31307;DHT22;17935;51.120;13.132;2024-02-04T15:49:44;8.00;99.90
31307;DHT22;17935;51.120;13.132;2024-02-04T15:54:53;8.00;99.90
31307;DHT22;17935;51.120;13.132;2024-02-04T15:59:57;7.90;99.90
31307;DHT22;17935;51.120;13.132;2024-02-04T16:02:26;7.90;99.90
31307;DHT22;17935;51.120;13.132;2024-02-04T16:04:51;7.90;99.90
31307;DHT22;17935;51.120;13.132;2024-02-04T16:07:18;7.90;99.90
31307;DHT22;17935;51.120;13.132;2024-02-04T16:12:22;7.90;99.90
31307;DHT22;17935;51.120;13.132;2024-02-04T16:14:49;7.90;99.90
31307;DHT22;17935;51.120;13.132;2024-02-04T16:19:51;8.00;99.90
31307;DHT22;17935;51.120;13.132;2024-02-04T16:22:20;7.90;99.90
31307;DHT22;17935;51.120;13.132;2024-02-04T16:24:51;8.00;99.90